Es Llevant — EA4701 — position and weather

sailwx.info

Track history (hours):
 
Tides and Currents Weather Stations Pressure Air Temp Water Temp Dewpoint Dewpoint Depression Visibility Wind Speed Wind Dir Waves Ship Positions

Es Llevant

Last reported at 2017-Oct-19 04:50 UTC. Time now 2017-Oct-19 07:18 UTC.
Position N 39°15' E 002°34'.

Length 21 m; draft 4 m.

Type: Fishing. MMSI: 224006950.

Date/timePositionNaut miles runAvg speedWind from/ knotsBaromVisibWave heightAir tempDewpointWater temp
2017-Oct-19 04:50N 39°15' E 002°34'310.1
2017-Oct-19 04:30N 39°18' E 002°35'510.1
2017-Oct-19 04:00N 39°23' E 002°36'510.3
2017-Oct-19 03:30N 39°28' E 002°37'510.3
2017-Oct-19 03:00N 39°33' E 002°38'1 1.8
2017-Oct-19 02:28N 39°34' E 002°38'0 0.0
2017-Oct-19 01:58N 39°34' E 002°38'0 0.0
2017-Oct-19 01:28N 39°34' E 002°38'0 0.0
2017-Oct-19 00:58N 39°34' E 002°38'0 0.0
2017-Oct-19 00:29N 39°34' E 002°38'0 0.0
2017-Oct-18 23:59N 39°34' E 002°38'0 0.0
2017-Oct-18 23:29N 39°34' E 002°38'0 0.0
2017-Oct-18 23:00N 39°34' E 002°38'0 0.0
2017-Oct-18 22:30N 39°34' E 002°38'0 0.0
2017-Oct-18 22:00N 39°34' E 002°38'0 0.0
2017-Oct-18 21:28N 39°34' E 002°38'0 0.0
2017-Oct-18 20:58N 39°34' E 002°38'0 0.0
2017-Oct-18 20:28N 39°34' E 002°38'0 0.0
2017-Oct-18 19:58N 39°34' E 002°38'0 0.0
2017-Oct-18 19:30N 39°34' E 002°38'0 0.0
2017-Oct-18 19:00N 39°34' E 002°38'0 0.0
2017-Oct-18 18:30N 39°34' E 002°38'0 0.0
2017-Oct-18 17:58N 39°34' E 002°38'0 0.0
2017-Oct-18 17:28N 39°34' E 002°38'0 0.0
2017-Oct-18 16:58N 39°34' E 002°38'0 0.0
2017-Oct-18 16:28N 39°34' E 002°38'0 0.0
2017-Oct-18 15:58N 39°34' E 002°38'0 0.0
2017-Oct-18 15:24N 39°34' E 002°38'0 0.6
2017-Oct-18 15:00N 39°34' E 002°38'10 9.8
2017-Oct-18 14:00N 39°24' E 002°36'8 0.9
2017-Oct-18 04:42N 39°16' E 002°35'210.0
2017-Oct-18 04:30N 39°18' E 002°35'510.0
2017-Oct-18 04:00N 39°23' E 002°36'510.3
2017-Oct-18 03:30N 39°28' E 002°37'510.4
2017-Oct-18 03:00N 39°33' E 002°38'1 1.6
2017-Oct-18 02:28N 39°34' E 002°38'0 0.0
2017-Oct-18 02:00N 39°34' E 002°38'0 0.0
2017-Oct-18 01:30N 39°34' E 002°38'0 0.0
2017-Oct-18 01:00N 39°34' E 002°38'0 0.0
2017-Oct-18 00:30N 39°34' E 002°38'0 0.0
2017-Oct-17 23:53N 39°34' E 002°38'0 0.0
2017-Oct-17 23:28N 39°34' E 002°38'0 0.0
2017-Oct-17 22:58N 39°34' E 002°38'0 0.0
2017-Oct-17 22:26N 39°34' E 002°38'0 0.0
2017-Oct-17 22:00N 39°34' E 002°38'0 0.0
2017-Oct-17 21:30N 39°34' E 002°38'0 0.0
2017-Oct-17 20:59N 39°34' E 002°38'0 0.0
2017-Oct-17 20:30N 39°34' E 002°38'0 0.0
2017-Oct-17 19:59N 39°34' E 002°38'0 0.0
2017-Oct-17 19:30N 39°34' E 002°38'0 0.0
2017-Oct-17 18:57N 39°34' E 002°38'0 0.0
2017-Oct-17 18:29N 39°34' E 002°38'0 0.0
2017-Oct-17 17:59N 39°34' E 002°38'0 0.0
2017-Oct-17 17:30N 39°34' E 002°38'0 0.0
2017-Oct-17 17:00N 39°34' E 002°38'0 0.0
2017-Oct-17 16:26N 39°34' E 002°38'0 0.0
2017-Oct-17 16:00N 39°34' E 002°38'0 0.0
2017-Oct-17 15:29N 39°34' E 002°38'0 0.0
2017-Oct-17 14:59N 39°34' E 002°38'4 7.4
2017-Oct-17 14:30N 39°30' E 002°38'510.7
2017-Oct-17 14:01N 39°25' E 002°37'9 0.6
2017-Oct-16 22:10N 39°34' E 002°38'0 0.0
2017-Oct-16 21:58N 39°34' E 002°38'0 0.0
2017-Oct-16 21:28N 39°34' E 002°38'0 0.0
2017-Oct-16 20:58N 39°34' E 002°38'0 0.0
2017-Oct-16 20:30N 39°34' E 002°38'0 0.0
2017-Oct-16 19:55N 39°34' E 002°38'0 0.0
2017-Oct-16 19:28N 39°34' E 002°38'0 0.0
2017-Oct-16 18:58N 39°34' E 002°38'0 0.0
2017-Oct-16 18:30N 39°34' E 002°38'0 0.0
2017-Oct-16 18:00N 39°34' E 002°38'0 0.0
2017-Oct-16 17:30N 39°34' E 002°38'0 0.0
2017-Oct-16 16:57N 39°34' E 002°38'0 0.0
2017-Oct-16 16:30N 39°34' E 002°38'0 0.0
2017-Oct-16 15:55N 39°34' E 002°38'0 0.0
2017-Oct-16 15:29N 39°34' E 002°38'1 2.0
2017-Oct-16 15:00N 39°33' E 002°38'611.1
2017-Oct-16 14:30N 39°28' E 002°36'13 1.4
2017-Oct-16 05:18N 39°16' E 002°31'2 3.1
2017-Oct-16 04:46N 39°17' E 002°32'1 3.9
2017-Oct-16 04:30N 39°18' E 002°33'510.3
2017-Oct-16 04:00N 39°23' E 002°35'510.6
2017-Oct-16 03:30N 39°28' E 002°37'510.5
2017-Oct-16 03:00N 39°33' E 002°38'1 1.7
2017-Oct-16 02:28N 39°34' E 002°38'0 0.0
2017-Oct-16 01:58N 39°34' E 002°38'0 0.0
2017-Oct-16 01:24N 39°34' E 002°38'0 0.0
2017-Oct-16 00:58N 39°34' E 002°38'0 0.0
2017-Oct-16 00:28N 39°34' E 002°38'0 0.0
2017-Oct-15 23:57N 39°34' E 002°38'0 0.0
2017-Oct-15 23:27N 39°34' E 002°38'0 0.0
2017-Oct-15 23:00N 39°34' E 002°38'0 0.0
2017-Oct-15 22:30N 39°34' E 002°38'0 0.0
2017-Oct-15 21:58N 39°34' E 002°38'0 0.0
2017-Oct-15 21:28N 39°34' E 002°38'0 0.0
2017-Oct-15 20:58N 39°34' E 002°38'0 0.0
2017-Oct-15 20:28N 39°34' E 002°38'0 0.0
2017-Oct-15 19:58N 39°34' E 002°38'0 0.0
2017-Oct-15 19:28N 39°34' E 002°38'0 0.0
2017-Oct-15 18:57N 39°34' E 002°38'0 0.0
2017-Oct-15 18:28N 39°34' E 002°38'0 0.0
2017-Oct-15 17:58N 39°34' E 002°38'0 0.0
2017-Oct-15 17:30N 39°34' E 002°38'0 0.0
2017-Oct-15 16:58N 39°34' E 002°38'0 0.0
2017-Oct-15 16:28N 39°34' E 002°38'0 0.0
2017-Oct-15 15:58N 39°34' E 002°38'0 0.0
2017-Oct-15 15:29N 39°34' E 002°38'0 0.0
2017-Oct-15 14:59N 39°34' E 002°38'0 0.0
2017-Oct-15 13:58N 39°34' E 002°38'0 0.0
2017-Oct-15 13:28N 39°34' E 002°38'0 0.0
2017-Oct-15 12:59N 39°34' E 002°38'0 0.0
2017-Oct-15 12:30N 39°34' E 002°38'0 0.0
2017-Oct-15 11:55N 39°34' E 002°38'0 0.0
2017-Oct-15 11:28N 39°34' E 002°38'0 0.0
2017-Oct-15 11:00N 39°34' E 002°38'0 0.0
2017-Oct-15 10:29N 39°34' E 002°38'0 0.0
2017-Oct-15 09:59N 39°34' E 002°38'0 0.0
2017-Oct-15 09:29N 39°34' E 002°38'0 0.0
2017-Oct-15 08:58N 39°34' E 002°38'0 0.0
2017-Oct-15 08:28N 39°34' E 002°38'0 0.0
2017-Oct-15 07:58N 39°34' E 002°38'0 0.0
2017-Oct-15 07:28N 39°34' E 002°38'0 0.0
2017-Oct-15 06:58N 39°34' E 002°38'0 0.0
2017-Oct-15 06:30N 39°34' E 002°38'0 0.0
2017-Oct-15 05:58N 39°34' E 002°38'0 0.0
2017-Oct-15 05:26N 39°34' E 002°38'0 0.0
2017-Oct-15 04:58N 39°34' E 002°38'0 0.0
2017-Oct-15 04:28N 39°34' E 002°38'0 0.0
2017-Oct-15 03:58N 39°34' E 002°38'0 0.0
2017-Oct-15 03:30N 39°34' E 002°38'0 0.0
2017-Oct-15 03:00N 39°34' E 002°38'0 0.0
2017-Oct-15 02:28N 39°34' E 002°38'0 0.0
2017-Oct-15 01:55N 39°34' E 002°38'0 0.0
2017-Oct-15 01:30N 39°34' E 002°38'0 0.0
2017-Oct-15 01:00N 39°34' E 002°38'0 0.0
2017-Oct-15 00:30N 39°34' E 002°38'0 0.0
2017-Oct-14 23:58N 39°34' E 002°38'0 0.0
2017-Oct-14 23:28N 39°34' E 002°38'0 0.0
2017-Oct-14 22:57N 39°34' E 002°38'0 0.0
2017-Oct-14 22:30N 39°34' E 002°38'0 0.0
2017-Oct-14 21:59N 39°34' E 002°38'0 0.0
2017-Oct-14 21:28N 39°34' E 002°38'0 0.0
2017-Oct-14 20:59N 39°34' E 002°38'0 0.0
2017-Oct-14 20:28N 39°34' E 002°38'0 0.0
2017-Oct-14 19:58N 39°34' E 002°38'0 0.0
2017-Oct-14 19:23N 39°34' E 002°38'0 0.0
2017-Oct-14 18:58N 39°34' E 002°38'0 0.0
2017-Oct-14 18:28N 39°34' E 002°38'0 0.0
2017-Oct-14 18:00N 39°34' E 002°38'0 0.0
2017-Oct-14 17:28N 39°34' E 002°38'0 0.0
2017-Oct-14 16:58N 39°34' E 002°38'0 0.0
2017-Oct-14 16:26N 39°34' E 002°38'0 0.0
2017-Oct-14 15:59N 39°34' E 002°38'0 0.0
2017-Oct-14 15:28N 39°34' E 002°38'0 0.0
2017-Oct-14 14:58N 39°34' E 002°38'0 0.0
2017-Oct-14 14:30N 39°34' E 002°38'0 0.0
2017-Oct-14 13:59N 39°34' E 002°38'0 0.0
2017-Oct-14 13:29N 39°34' E 002°38'0 0.0
2017-Oct-14 12:58N 39°34' E 002°38'0 0.0
2017-Oct-14 12:28N 39°34' E 002°38'0 0.0
2017-Oct-14 11:58N 39°34' E 002°38'0 0.0
2017-Oct-14 11:28N 39°34' E 002°38'0 0.0
2017-Oct-14 10:58N 39°34' E 002°38'0 0.0
2017-Oct-14 10:26N 39°34' E 002°38'0 0.0
2017-Oct-14 09:59N 39°34' E 002°38'0 0.0
2017-Oct-14 09:30N 39°34' E 002°38'0 0.0
2017-Oct-14 08:59N 39°34' E 002°38'0 0.0
2017-Oct-14 08:28N 39°34' E 002°38'0 0.0
2017-Oct-14 07:58N 39°34' E 002°38'0 0.0
2017-Oct-14 07:26N 39°34' E 002°38'0 0.0
2017-Oct-14 06:57N 39°34' E 002°38'0 0.0
2017-Oct-14 06:29N 39°34' E 002°38'0 0.0
2017-Oct-14 05:58N 39°34' E 002°38'0 0.0
2017-Oct-14 05:29N 39°34' E 002°38'0 0.0
2017-Oct-14 04:59N 39°34' E 002°38'0 0.0
2017-Oct-14 04:29N 39°34' E 002°38'0 0.0
2017-Oct-14 03:55N 39°34' E 002°38'0 0.0
2017-Oct-14 03:28N 39°34' E 002°38'0 0.0
2017-Oct-14 02:58N 39°34' E 002°38'0 0.0
2017-Oct-14 02:30N 39°34' E 002°38'0 0.0
2017-Oct-14 02:00N 39°34' E 002°38'0 0.0
2017-Oct-14 01:30N 39°34' E 002°38'0 0.0
2017-Oct-14 01:00N 39°34' E 002°38'0 0.0
2017-Oct-14 00:30N 39°34' E 002°38'0 0.0
2017-Oct-13 23:53N 39°34' E 002°38'0 0.0
2017-Oct-13 23:29N 39°34' E 002°38'0 0.0
2017-Oct-13 23:00N 39°34' E 002°38'0 0.0
2017-Oct-13 22:28N 39°34' E 002°38'0 0.0
2017-Oct-13 21:58N 39°34' E 002°38'0 0.0
2017-Oct-13 21:29N 39°34' E 002°38'0 0.0
2017-Oct-13 21:00N 39°34' E 002°38'0 0.0
2017-Oct-13 20:25N 39°34' E 002°38'0 0.0
2017-Oct-13 20:00N 39°34' E 002°38'0 0.0
2017-Oct-13 19:28N 39°34' E 002°38'0 0.0
2017-Oct-13 19:00N 39°34' E 002°38'0 0.0
2017-Oct-13 18:28N 39°34' E 002°38'0 0.0
2017-Oct-13 17:59N 39°34' E 002°38'0 0.0
2017-Oct-13 17:29N 39°34' E 002°38'0 0.0
2017-Oct-13 17:00N 39°34' E 002°38'0 0.0
2017-Oct-13 16:25N 39°34' E 002°38'0 0.0
2017-Oct-13 15:59N 39°34' E 002°38'0 0.0
2017-Oct-13 15:30N 39°34' E 002°38'0 0.6
2017-Oct-13 15:00N 39°34' E 002°38'5 9.7
2017-Oct-13 14:30N 39°29' E 002°39'510.9
2017-Oct-13 14:00N 39°24' E 002°40'12 1.3
2017-Oct-13 04:58N 39°12' E 002°40'510.8
2017-Oct-13 04:30N 39°17' E 002°39'510.8
2017-Oct-13 04:00N 39°22' E 002°39'610.9
2017-Oct-13 03:30N 39°28' E 002°39'511.0
2017-Oct-13 03:00N 39°33' E 002°38'1 1.7
2017-Oct-13 02:28N 39°34' E 002°38'0 0.0
2017-Oct-13 01:56N 39°34' E 002°38'0 0.0
2017-Oct-13 01:29N 39°34' E 002°38'0 0.0
2017-Oct-13 01:00N 39°34' E 002°38'0 0.0
2017-Oct-13 00:30N 39°34' E 002°38'0 0.0
2017-Oct-13 00:00N 39°34' E 002°38'0 0.0
2017-Oct-12 23:30N 39°34' E 002°38'0 0.0
2017-Oct-12 22:59N 39°34' E 002°38'0 0.0
2017-Oct-12 22:30N 39°34' E 002°38'0 0.0
2017-Oct-12 21:56N 39°34' E 002°38'0 0.0
2017-Oct-12 21:30N 39°34' E 002°38'0 0.0
2017-Oct-12 21:00N 39°34' E 002°38'0 0.0
2017-Oct-12 20:28N 39°34' E 002°38'0 0.0
2017-Oct-12 19:54N 39°34' E 002°38'0 0.0
2017-Oct-12 19:29N 39°34' E 002°38'0 0.0
2017-Oct-12 18:59N 39°34' E 002°38'0 0.0
2017-Oct-12 18:30N 39°34' E 002°38'0 0.0
2017-Oct-12 17:59N 39°34' E 002°38'0 0.0
2017-Oct-12 17:30N 39°34' E 002°38'0 0.0
2017-Oct-12 16:58N 39°34' E 002°38'0 0.0
2017-Oct-12 16:28N 39°34' E 002°38'0 0.0
2017-Oct-12 15:57N 39°34' E 002°38'0 0.0
2017-Oct-12 15:24N 39°34' E 002°38'0 0.0
2017-Oct-12 15:00N 39°34' E 002°38'0 0.0
2017-Oct-12 14:28N 39°34' E 002°38'0 0.0
2017-Oct-12 13:57N 39°34' E 002°38'0 0.0
2017-Oct-12 13:28N 39°34' E 002°38'0 0.0
2017-Oct-12 12:59N 39°34' E 002°38'0 0.0
2017-Oct-12 12:29N 39°34' E 002°38'0 0.0
2017-Oct-12 11:54N 39°34' E 002°38'0 0.0
2017-Oct-12 11:29N 39°34' E 002°38'0 0.0
2017-Oct-12 11:00N 39°34' E 002°38'0 0.0
2017-Oct-12 10:30N 39°34' E 002°38'0 0.0
2017-Oct-12 09:54N 39°34' E 002°38'0 0.0
2017-Oct-12 09:30N 39°34' E 002°38'0 0.0
2017-Oct-12 08:59N 39°34' E 002°38'0 0.0
2017-Oct-12 08:29N 39°34' E 002°38'0 0.0
2017-Oct-12 07:59N 39°34' E 002°38'0 0.0
2017-Oct-12 07:29N 39°34' E 002°38'0 0.0
2017-Oct-12 07:00N 39°34' E 002°38'0 0.0
2017-Oct-12 06:29N 39°34' E 002°38'0 0.0
2017-Oct-12 05:58N 39°34' E 002°38'0 0.0
2017-Oct-12 05:28N 39°34' E 002°38'0 0.0
2017-Oct-12 04:58N 39°34' E 002°38'0 0.0
2017-Oct-12 04:30N 39°34' E 002°38'0 0.0
2017-Oct-12 03:59N 39°34' E 002°38'0 0.0
2017-Oct-12 03:29N 39°34' E 002°38'0 0.0
2017-Oct-12 02:59N 39°34' E 002°38'0 0.0
2017-Oct-12 02:28N 39°34' E 002°38'0 0.0
2017-Oct-12 01:59N 39°34' E 002°38'0 0.0
2017-Oct-12 01:29N 39°34' E 002°38'0 0.0
2017-Oct-12 00:59N 39°34' E 002°38'0 0.0
2017-Oct-12 00:28N 39°34' E 002°38'0 0.0
2017-Oct-11 23:58N 39°34' E 002°38'0 0.0
2017-Oct-11 23:29N 39°34' E 002°38'0 0.0
2017-Oct-11 22:59N 39°34' E 002°38'0 0.0
2017-Oct-11 22:29N 39°34' E 002°38'0 0.0
2017-Oct-11 21:59N 39°34' E 002°38'0 0.0
2017-Oct-11 21:28N 39°34' E 002°38'0 0.0
2017-Oct-11 21:00N 39°34' E 002°38'0 0.0
2017-Oct-11 20:29N 39°34' E 002°38'0 0.0
2017-Oct-11 19:54N 39°34' E 002°38'0 0.0
2017-Oct-11 19:30N 39°34' E 002°38'0 0.0
2017-Oct-11 18:58N 39°34' E 002°38'0 0.0
2017-Oct-11 18:30N 39°34' E 002°38'0 0.0
2017-Oct-11 17:59N 39°34' E 002°38'0 0.0
2017-Oct-11 17:29N 39°34' E 002°38'0 0.0
2017-Oct-11 16:57N 39°34' E 002°38'0 0.0
2017-Oct-10 23:58N 39°34' E 002°38'0 0.0
2017-Oct-10 23:24N 39°34' E 002°38'0 0.0
2017-Oct-10 23:00N 39°34' E 002°38'0 0.0
2017-Oct-10 22:30N 39°34' E 002°38'0 0.0
2017-Oct-10 22:00N 39°34' E 002°38'0 0.0
2017-Oct-10 21:30N 39°34' E 002°38'0 0.0
2017-Oct-10 20:59N 39°34' E 002°38'0 0.0
2017-Oct-10 20:29N 39°34' E 002°38'0 0.0
2017-Oct-10 20:00N 39°34' E 002°38'0 0.0
2017-Oct-10 19:30N 39°34' E 002°38'0 0.0
2017-Oct-10 19:00N 39°34' E 002°38'0 0.0
2017-Oct-10 18:30N 39°34' E 002°38'0 0.0
2017-Oct-10 17:53N 39°34' E 002°38'0 0.0
2017-Oct-10 17:28N 39°34' E 002°38'0 0.0
2017-Oct-10 17:00N 39°34' E 002°38'0 0.0
2017-Oct-10 16:30N 39°34' E 002°38'0 0.0
2017-Oct-10 16:00N 39°34' E 002°38'0 0.0
2017-Oct-10 15:28N 39°34' E 002°38'1 1.3
2017-Oct-10 15:00N 39°34' E 002°38'1010.2
2017-Oct-10 14:00N 39°24' E 002°35'7 0.7
2017-Oct-10 04:38N 39°17' E 002°33'110.3
2017-Oct-10 04:30N 39°18' E 002°34'510.2
2017-Oct-10 04:00N 39°23' E 002°35'510.3
2017-Oct-10 03:30N 39°28' E 002°37'510.3
2017-Oct-10 03:00N 39°33' E 002°38'1 1.8
2017-Oct-10 02:30N 39°34' E 002°38'0 0.0
2017-Oct-10 01:59N 39°34' E 002°38'0 0.0
2017-Oct-10 01:28N 39°34' E 002°38'0 0.0
2017-Oct-10 00:58N 39°34' E 002°38'0 0.0
2017-Oct-10 00:29N 39°34' E 002°38'0 0.0
2017-Oct-09 23:59N 39°34' E 002°38'0 0.0
2017-Oct-09 23:29N 39°34' E 002°38'0 0.0
2017-Oct-09 22:59N 39°34' E 002°38'0 0.0
2017-Oct-09 22:28N 39°34' E 002°38'0 0.0
2017-Oct-09 21:56N 39°34' E 002°38'0 0.0
2017-Oct-09 21:28N 39°34' E 002°38'0 0.0
2017-Oct-09 20:57N 39°34' E 002°38'0 0.0
2017-Oct-09 20:27N 39°34' E 002°38'0 0.0
2017-Oct-09 19:59N 39°34' E 002°38'0 0.0
2017-Oct-09 19:28N 39°34' E 002°38'0 0.0
2017-Oct-09 18:58N 39°34' E 002°38'0 0.0
2017-Oct-09 18:26N 39°34' E 002°38'0 0.0
2017-Oct-09 17:54N 39°34' E 002°38'0 0.0
2017-Oct-09 17:30N 39°34' E 002°38'0 0.0
2017-Oct-09 16:59N 39°34' E 002°38'0 0.0
2017-Oct-09 16:29N 39°34' E 002°38'0 0.0
2017-Oct-09 15:58N 39°34' E 002°38'0 0.0
2017-Oct-09 15:30N 39°34' E 002°38'0 0.0
2017-Oct-09 15:00N 39°34' E 002°38'4 8.0
2017-Oct-09 14:30N 39°30' E 002°38'510.7
2017-Oct-09 14:00N 39°25' E 002°36'  
Track history (hours):
 
Tides and Currents Weather Stations Pressure Air Temp Water Temp Dewpoint Dewpoint Depression Visibility Wind Speed Wind Dir Waves Ship Positions

Es Llevant

Last reported at 2017-Oct-19 04:50 UTC. Time now 2017-Oct-19 07:18 UTC.
Position N 39°15' E 002°34'.

Length 21 m; draft 4 m.

Type: Fishing. MMSI: 224006950.

Date/timePositionNaut miles runAvg speedWind from/ knotsBaromVisibWave heightAir tempDewpointWater temp
2017-Oct-19 04:50N 39°15' E 002°34'310.1
2017-Oct-19 04:30N 39°18' E 002°35'510.1
2017-Oct-19 04:00N 39°23' E 002°36'510.3
2017-Oct-19 03:30N 39°28' E 002°37'510.3
2017-Oct-19 03:00N 39°33' E 002°38'1 1.8
2017-Oct-19 02:28N 39°34' E 002°38'0 0.0
2017-Oct-19 01:58N 39°34' E 002°38'0 0.0
2017-Oct-19 01:28N 39°34' E 002°38'0 0.0
2017-Oct-19 00:58N 39°34' E 002°38'0 0.0
2017-Oct-19 00:29N 39°34' E 002°38'0 0.0
2017-Oct-18 23:59N 39°34' E 002°38'0 0.0
2017-Oct-18 23:29N 39°34' E 002°38'0 0.0
2017-Oct-18 23:00N 39°34' E 002°38'0 0.0
2017-Oct-18 22:30N 39°34' E 002°38'0 0.0
2017-Oct-18 22:00N 39°34' E 002°38'0 0.0
2017-Oct-18 21:28N 39°34' E 002°38'0 0.0
2017-Oct-18 20:58N 39°34' E 002°38'0 0.0
2017-Oct-18 20:28N 39°34' E 002°38'0 0.0
2017-Oct-18 19:58N 39°34' E 002°38'0 0.0
2017-Oct-18 19:30N 39°34' E 002°38'0 0.0
2017-Oct-18 19:00N 39°34' E 002°38'0 0.0
2017-Oct-18 18:30N 39°34' E 002°38'0 0.0
2017-Oct-18 17:58N 39°34' E 002°38'0 0.0
2017-Oct-18 17:28N 39°34' E 002°38'0 0.0
2017-Oct-18 16:58N 39°34' E 002°38'0 0.0
2017-Oct-18 16:28N 39°34' E 002°38'0 0.0
2017-Oct-18 15:58N 39°34' E 002°38'0 0.0
2017-Oct-18 15:24N 39°34' E 002°38'0 0.6
2017-Oct-18 15:00N 39°34' E 002°38'10 9.8
2017-Oct-18 14:00N 39°24' E 002°36'8 0.9
2017-Oct-18 04:42N 39°16' E 002°35'210.0
2017-Oct-18 04:30N 39°18' E 002°35'510.0
2017-Oct-18 04:00N 39°23' E 002°36'510.3
2017-Oct-18 03:30N 39°28' E 002°37'510.4
2017-Oct-18 03:00N 39°33' E 002°38'1 1.6
2017-Oct-18 02:28N 39°34' E 002°38'0 0.0
2017-Oct-18 02:00N 39°34' E 002°38'0 0.0
2017-Oct-18 01:30N 39°34' E 002°38'0 0.0
2017-Oct-18 01:00N 39°34' E 002°38'0 0.0
2017-Oct-18 00:30N 39°34' E 002°38'0 0.0
2017-Oct-17 23:53N 39°34' E 002°38'0 0.0
2017-Oct-17 23:28N 39°34' E 002°38'0 0.0
2017-Oct-17 22:58N 39°34' E 002°38'0 0.0
2017-Oct-17 22:26N 39°34' E 002°38'0 0.0
2017-Oct-17 22:00N 39°34' E 002°38'0 0.0
2017-Oct-17 21:30N 39°34' E 002°38'0 0.0
2017-Oct-17 20:59N 39°34' E 002°38'0 0.0
2017-Oct-17 20:30N 39°34' E 002°38'0 0.0
2017-Oct-17 19:59N 39°34' E 002°38'0 0.0
2017-Oct-17 19:30N 39°34' E 002°38'0 0.0
2017-Oct-17 18:57N 39°34' E 002°38'0 0.0
2017-Oct-17 18:29N 39°34' E 002°38'0 0.0
2017-Oct-17 17:59N 39°34' E 002°38'0 0.0
2017-Oct-17 17:30N 39°34' E 002°38'0 0.0
2017-Oct-17 17:00N 39°34' E 002°38'0 0.0
2017-Oct-17 16:26N 39°34' E 002°38'0 0.0
2017-Oct-17 16:00N 39°34' E 002°38'0 0.0
2017-Oct-17 15:29N 39°34' E 002°38'0 0.0
2017-Oct-17 14:59N 39°34' E 002°38'4 7.4
2017-Oct-17 14:30N 39°30' E 002°38'510.7
2017-Oct-17 14:01N 39°25' E 002°37'9 0.6
2017-Oct-16 22:10N 39°34' E 002°38'0 0.0
2017-Oct-16 21:58N 39°34' E 002°38'0 0.0
2017-Oct-16 21:28N 39°34' E 002°38'0 0.0
2017-Oct-16 20:58N 39°34' E 002°38'0 0.0
2017-Oct-16 20:30N 39°34' E 002°38'0 0.0
2017-Oct-16 19:55N 39°34' E 002°38'0 0.0
2017-Oct-16 19:28N 39°34' E 002°38'0 0.0
2017-Oct-16 18:58N 39°34' E 002°38'0 0.0
2017-Oct-16 18:30N 39°34' E 002°38'0 0.0
2017-Oct-16 18:00N 39°34' E 002°38'0 0.0
2017-Oct-16 17:30N 39°34' E 002°38'0 0.0
2017-Oct-16 16:57N 39°34' E 002°38'0 0.0
2017-Oct-16 16:30N 39°34' E 002°38'0 0.0
2017-Oct-16 15:55N 39°34' E 002°38'0 0.0
2017-Oct-16 15:29N 39°34' E 002°38'1 2.0
2017-Oct-16 15:00N 39°33' E 002°38'611.1
2017-Oct-16 14:30N 39°28' E 002°36'13 1.4
2017-Oct-16 05:18N 39°16' E 002°31'2 3.1
2017-Oct-16 04:46N 39°17' E 002°32'1 3.9
2017-Oct-16 04:30N 39°18' E 002°33'510.3
2017-Oct-16 04:00N 39°23' E 002°35'510.6
2017-Oct-16 03:30N 39°28' E 002°37'510.5
2017-Oct-16 03:00N 39°33' E 002°38'1 1.7
2017-Oct-16 02:28N 39°34' E 002°38'0 0.0
2017-Oct-16 01:58N 39°34' E 002°38'0 0.0
2017-Oct-16 01:24N 39°34' E 002°38'0 0.0
2017-Oct-16 00:58N 39°34' E 002°38'0 0.0
2017-Oct-16 00:28N 39°34' E 002°38'0 0.0
2017-Oct-15 23:57N 39°34' E 002°38'0 0.0
2017-Oct-15 23:27N 39°34' E 002°38'0 0.0
2017-Oct-15 23:00N 39°34' E 002°38'0 0.0
2017-Oct-15 22:30N 39°34' E 002°38'0 0.0
2017-Oct-15 21:58N 39°34' E 002°38'0 0.0
2017-Oct-15 21:28N 39°34' E 002°38'0 0.0
2017-Oct-15 20:58N 39°34' E 002°38'0 0.0
2017-Oct-15 20:28N 39°34' E 002°38'0 0.0
2017-Oct-15 19:58N 39°34' E 002°38'0 0.0
2017-Oct-15 19:28N 39°34' E 002°38'0 0.0
2017-Oct-15 18:57N 39°34' E 002°38'0 0.0
2017-Oct-15 18:28N 39°34' E 002°38'0 0.0
2017-Oct-15 17:58N 39°34' E 002°38'0 0.0
2017-Oct-15 17:30N 39°34' E 002°38'0 0.0
2017-Oct-15 16:58N 39°34' E 002°38'0 0.0
2017-Oct-15 16:28N 39°34' E 002°38'0 0.0
2017-Oct-15 15:58N 39°34' E 002°38'0 0.0
2017-Oct-15 15:29N 39°34' E 002°38'0 0.0
2017-Oct-15 14:59N 39°34' E 002°38'0 0.0
2017-Oct-15 13:58N 39°34' E 002°38'0 0.0
2017-Oct-15 13:28N 39°34' E 002°38'0 0.0
2017-Oct-15 12:59N 39°34' E 002°38'0 0.0
2017-Oct-15 12:30N 39°34' E 002°38'0 0.0
2017-Oct-15 11:55N 39°34' E 002°38'0 0.0
2017-Oct-15 11:28N 39°34' E 002°38'0 0.0
2017-Oct-15 11:00N 39°34' E 002°38'0 0.0
2017-Oct-15 10:29N 39°34' E 002°38'0 0.0
2017-Oct-15 09:59N 39°34' E 002°38'0 0.0
2017-Oct-15 09:29N 39°34' E 002°38'0 0.0
2017-Oct-15 08:58N 39°34' E 002°38'0 0.0
2017-Oct-15 08:28N 39°34' E 002°38'0 0.0
2017-Oct-15 07:58N 39°34' E 002°38'0 0.0
2017-Oct-15 07:28N 39°34' E 002°38'0 0.0
2017-Oct-15 06:58N 39°34' E 002°38'0 0.0
2017-Oct-15 06:30N 39°34' E 002°38'0 0.0
2017-Oct-15 05:58N 39°34' E 002°38'0 0.0
2017-Oct-15 05:26N 39°34' E 002°38'0 0.0
2017-Oct-15 04:58N 39°34' E 002°38'0 0.0
2017-Oct-15 04:28N 39°34' E 002°38'0 0.0
2017-Oct-15 03:58N 39°34' E 002°38'0 0.0
2017-Oct-15 03:30N 39°34' E 002°38'0 0.0
2017-Oct-15 03:00N 39°34' E 002°38'0 0.0
2017-Oct-15 02:28N 39°34' E 002°38'0 0.0
2017-Oct-15 01:55N 39°34' E 002°38'0 0.0
2017-Oct-15 01:30N 39°34' E 002°38'0 0.0
2017-Oct-15 01:00N 39°34' E 002°38'0 0.0
2017-Oct-15 00:30N 39°34' E 002°38'0 0.0
2017-Oct-14 23:58N 39°34' E 002°38'0 0.0
2017-Oct-14 23:28N 39°34' E 002°38'0 0.0
2017-Oct-14 22:57N 39°34' E 002°38'0 0.0
2017-Oct-14 22:30N 39°34' E 002°38'0 0.0
2017-Oct-14 21:59N 39°34' E 002°38'0 0.0
2017-Oct-14 21:28N 39°34' E 002°38'0 0.0
2017-Oct-14 20:59N 39°34' E 002°38'0 0.0
2017-Oct-14 20:28N 39°34' E 002°38'0 0.0
2017-Oct-14 19:58N 39°34' E 002°38'0 0.0
2017-Oct-14 19:23N 39°34' E 002°38'0 0.0
2017-Oct-14 18:58N 39°34' E 002°38'0 0.0
2017-Oct-14 18:28N 39°34' E 002°38'0 0.0
2017-Oct-14 18:00N 39°34' E 002°38'0 0.0
2017-Oct-14 17:28N 39°34' E 002°38'0 0.0
2017-Oct-14 16:58N 39°34' E 002°38'0 0.0
2017-Oct-14 16:26N 39°34' E 002°38'0 0.0
2017-Oct-14 15:59N 39°34' E 002°38'0 0.0
2017-Oct-14 15:28N 39°34' E 002°38'0 0.0
2017-Oct-14 14:58N 39°34' E 002°38'0 0.0
2017-Oct-14 14:30N 39°34' E 002°38'0 0.0
2017-Oct-14 13:59N 39°34' E 002°38'0 0.0
2017-Oct-14 13:29N 39°34' E 002°38'0 0.0
2017-Oct-14 12:58N 39°34' E 002°38'0 0.0
2017-Oct-14 12:28N 39°34' E 002°38'0 0.0
2017-Oct-14 11:58N 39°34' E 002°38'0 0.0
2017-Oct-14 11:28N 39°34' E 002°38'0 0.0
2017-Oct-14 10:58N 39°34' E 002°38'0 0.0
2017-Oct-14 10:26N 39°34' E 002°38'0 0.0
2017-Oct-14 09:59N 39°34' E 002°38'0 0.0
2017-Oct-14 09:30N 39°34' E 002°38'0 0.0
2017-Oct-14 08:59N 39°34' E 002°38'0 0.0
2017-Oct-14 08:28N 39°34' E 002°38'0 0.0
2017-Oct-14 07:58N 39°34' E 002°38'0 0.0
2017-Oct-14 07:26N 39°34' E 002°38'0 0.0
2017-Oct-14 06:57N 39°34' E 002°38'0 0.0
2017-Oct-14 06:29N 39°34' E 002°38'0 0.0
2017-Oct-14 05:58N 39°34' E 002°38'0 0.0
2017-Oct-14 05:29N 39°34' E 002°38'0 0.0
2017-Oct-14 04:59N 39°34' E 002°38'0 0.0
2017-Oct-14 04:29N 39°34' E 002°38'0 0.0
2017-Oct-14 03:55N 39°34' E 002°38'0 0.0
2017-Oct-14 03:28N 39°34' E 002°38'0 0.0
2017-Oct-14 02:58N 39°34' E 002°38'0 0.0
2017-Oct-14 02:30N 39°34' E 002°38'0 0.0
2017-Oct-14 02:00N 39°34' E 002°38'0 0.0
2017-Oct-14 01:30N 39°34' E 002°38'0 0.0
2017-Oct-14 01:00N 39°34' E 002°38'0 0.0
2017-Oct-14 00:30N 39°34' E 002°38'0 0.0
2017-Oct-13 23:53N 39°34' E 002°38'0 0.0
2017-Oct-13 23:29N 39°34' E 002°38'0 0.0
2017-Oct-13 23:00N 39°34' E 002°38'0 0.0
2017-Oct-13 22:28N 39°34' E 002°38'0 0.0
2017-Oct-13 21:58N 39°34' E 002°38'0 0.0
2017-Oct-13 21:29N 39°34' E 002°38'0 0.0
2017-Oct-13 21:00N 39°34' E 002°38'0 0.0
2017-Oct-13 20:25N 39°34' E 002°38'0 0.0
2017-Oct-13 20:00N 39°34' E 002°38'0 0.0
2017-Oct-13 19:28N 39°34' E 002°38'0 0.0
2017-Oct-13 19:00N 39°34' E 002°38'0 0.0
2017-Oct-13 18:28N 39°34' E 002°38'0 0.0
2017-Oct-13 17:59N 39°34' E 002°38'0 0.0
2017-Oct-13 17:29N 39°34' E 002°38'0 0.0
2017-Oct-13 17:00N 39°34' E 002°38'0 0.0
2017-Oct-13 16:25N 39°34' E 002°38'0 0.0
2017-Oct-13 15:59N 39°34' E 002°38'0 0.0
2017-Oct-13 15:30N 39°34' E 002°38'0 0.6
2017-Oct-13 15:00N 39°34' E 002°38'5 9.7
2017-Oct-13 14:30N 39°29' E 002°39'510.9
2017-Oct-13 14:00N 39°24' E 002°40'12 1.3
2017-Oct-13 04:58N 39°12' E 002°40'510.8
2017-Oct-13 04:30N 39°17' E 002°39'510.8
2017-Oct-13 04:00N 39°22' E 002°39'610.9
2017-Oct-13 03:30N 39°28' E 002°39'511.0
2017-Oct-13 03:00N 39°33' E 002°38'1 1.7
2017-Oct-13 02:28N 39°34' E 002°38'0 0.0
2017-Oct-13 01:56N 39°34' E 002°38'0 0.0
2017-Oct-13 01:29N 39°34' E 002°38'0 0.0
2017-Oct-13 01:00N 39°34' E 002°38'0 0.0
2017-Oct-13 00:30N 39°34' E 002°38'0 0.0
2017-Oct-13 00:00N 39°34' E 002°38'0 0.0
2017-Oct-12 23:30N 39°34' E 002°38'0 0.0
2017-Oct-12 22:59N 39°34' E 002°38'0 0.0
2017-Oct-12 22:30N 39°34' E 002°38'0 0.0
2017-Oct-12 21:56N 39°34' E 002°38'0 0.0
2017-Oct-12 21:30N 39°34' E 002°38'0 0.0
2017-Oct-12 21:00N 39°34' E 002°38'0 0.0
2017-Oct-12 20:28N 39°34' E 002°38'0 0.0
2017-Oct-12 19:54N 39°34' E 002°38'0 0.0
2017-Oct-12 19:29N 39°34' E 002°38'0 0.0
2017-Oct-12 18:59N 39°34' E 002°38'0 0.0
2017-Oct-12 18:30N 39°34' E 002°38'0 0.0
2017-Oct-12 17:59N 39°34' E 002°38'0 0.0
2017-Oct-12 17:30N 39°34' E 002°38'0 0.0
2017-Oct-12 16:58N 39°34' E 002°38'0 0.0
2017-Oct-12 16:28N 39°34' E 002°38'0 0.0
2017-Oct-12 15:57N 39°34' E 002°38'0 0.0
2017-Oct-12 15:24N 39°34' E 002°38'0 0.0
2017-Oct-12 15:00N 39°34' E 002°38'0 0.0
2017-Oct-12 14:28N 39°34' E 002°38'0 0.0
2017-Oct-12 13:57N 39°34' E 002°38'0 0.0
2017-Oct-12 13:28N 39°34' E 002°38'0 0.0
2017-Oct-12 12:59N 39°34' E 002°38'0 0.0
2017-Oct-12 12:29N 39°34' E 002°38'0 0.0
2017-Oct-12 11:54N 39°34' E 002°38'0 0.0
2017-Oct-12 11:29N 39°34' E 002°38'0 0.0
2017-Oct-12 11:00N 39°34' E 002°38'0 0.0
2017-Oct-12 10:30N 39°34' E 002°38'0 0.0
2017-Oct-12 09:54N 39°34' E 002°38'0 0.0
2017-Oct-12 09:30N 39°34' E 002°38'0 0.0
2017-Oct-12 08:59N 39°34' E 002°38'0 0.0
2017-Oct-12 08:29N 39°34' E 002°38'0 0.0
2017-Oct-12 07:59N 39°34' E 002°38'0 0.0
2017-Oct-12 07:29N 39°34' E 002°38'0 0.0
2017-Oct-12 07:00N 39°34' E 002°38'0 0.0
2017-Oct-12 06:29N 39°34' E 002°38'0 0.0
2017-Oct-12 05:58N 39°34' E 002°38'0 0.0
2017-Oct-12 05:28N 39°34' E 002°38'0 0.0
2017-Oct-12 04:58N 39°34' E 002°38'0 0.0
2017-Oct-12 04:30N 39°34' E 002°38'0 0.0
2017-Oct-12 03:59N 39°34' E 002°38'0 0.0
2017-Oct-12 03:29N 39°34' E 002°38'0 0.0
2017-Oct-12 02:59N 39°34' E 002°38'0 0.0
2017-Oct-12 02:28N 39°34' E 002°38'0 0.0
2017-Oct-12 01:59N 39°34' E 002°38'0 0.0
2017-Oct-12 01:29N 39°34' E 002°38'0 0.0
2017-Oct-12 00:59N 39°34' E 002°38'0 0.0
2017-Oct-12 00:28N 39°34' E 002°38'0 0.0
2017-Oct-11 23:58N 39°34' E 002°38'0 0.0
2017-Oct-11 23:29N 39°34' E 002°38'0 0.0
2017-Oct-11 22:59N 39°34' E 002°38'0 0.0
2017-Oct-11 22:29N 39°34' E 002°38'0 0.0
2017-Oct-11 21:59N 39°34' E 002°38'0 0.0
2017-Oct-11 21:28N 39°34' E 002°38'0 0.0
2017-Oct-11 21:00N 39°34' E 002°38'0 0.0
2017-Oct-11 20:29N 39°34' E 002°38'0 0.0
2017-Oct-11 19:54N 39°34' E 002°38'0 0.0
2017-Oct-11 19:30N 39°34' E 002°38'0 0.0
2017-Oct-11 18:58N 39°34' E 002°38'0 0.0
2017-Oct-11 18:30N 39°34' E 002°38'0 0.0
2017-Oct-11 17:59N 39°34' E 002°38'0 0.0
2017-Oct-11 17:29N 39°34' E 002°38'0 0.0
2017-Oct-11 16:57N 39°34' E 002°38'0 0.0
2017-Oct-10 23:58N 39°34' E 002°38'0 0.0
2017-Oct-10 23:24N 39°34' E 002°38'0 0.0
2017-Oct-10 23:00N 39°34' E 002°38'0 0.0
2017-Oct-10 22:30N 39°34' E 002°38'0 0.0
2017-Oct-10 22:00N 39°34' E 002°38'0 0.0
2017-Oct-10 21:30N 39°34' E 002°38'0 0.0
2017-Oct-10 20:59N 39°34' E 002°38'0 0.0
2017-Oct-10 20:29N 39°34' E 002°38'0 0.0
2017-Oct-10 20:00N 39°34' E 002°38'0 0.0
2017-Oct-10 19:30N 39°34' E 002°38'0 0.0
2017-Oct-10 19:00N 39°34' E 002°38'0 0.0
2017-Oct-10 18:30N 39°34' E 002°38'0 0.0
2017-Oct-10 17:53N 39°34' E 002°38'0 0.0
2017-Oct-10 17:28N 39°34' E 002°38'0 0.0
2017-Oct-10 17:00N 39°34' E 002°38'0 0.0
2017-Oct-10 16:30N 39°34' E 002°38'0 0.0
2017-Oct-10 16:00N 39°34' E 002°38'0 0.0
2017-Oct-10 15:28N 39°34' E 002°38'1 1.3
2017-Oct-10 15:00N 39°34' E 002°38'1010.2
2017-Oct-10 14:00N 39°24' E 002°35'7 0.7
2017-Oct-10 04:38N 39°17' E 002°33'110.3
2017-Oct-10 04:30N 39°18' E 002°34'510.2
2017-Oct-10 04:00N 39°23' E 002°35'510.3
2017-Oct-10 03:30N 39°28' E 002°37'510.3
2017-Oct-10 03:00N 39°33' E 002°38'1 1.8
2017-Oct-10 02:30N 39°34' E 002°38'0 0.0
2017-Oct-10 01:59N 39°34' E 002°38'0 0.0
2017-Oct-10 01:28N 39°34' E 002°38'0 0.0
2017-Oct-10 00:58N 39°34' E 002°38'0 0.0
2017-Oct-10 00:29N 39°34' E 002°38'0 0.0
2017-Oct-09 23:59N 39°34' E 002°38'0 0.0
2017-Oct-09 23:29N 39°34' E 002°38'0 0.0
2017-Oct-09 22:59N 39°34' E 002°38'0 0.0
2017-Oct-09 22:28N 39°34' E 002°38'0 0.0
2017-Oct-09 21:56N 39°34' E 002°38'0 0.0
2017-Oct-09 21:28N 39°34' E 002°38'0 0.0
2017-Oct-09 20:57N 39°34' E 002°38'0 0.0
2017-Oct-09 20:27N 39°34' E 002°38'0 0.0
2017-Oct-09 19:59N 39°34' E 002°38'0 0.0
2017-Oct-09 19:28N 39°34' E 002°38'0 0.0
2017-Oct-09 18:58N 39°34' E 002°38'0 0.0
2017-Oct-09 18:26N 39°34' E 002°38'0 0.0
2017-Oct-09 17:54N 39°34' E 002°38'0 0.0
2017-Oct-09 17:30N 39°34' E 002°38'0 0.0
2017-Oct-09 16:59N 39°34' E 002°38'0 0.0
2017-Oct-09 16:29N 39°34' E 002°38'0 0.0
2017-Oct-09 15:58N 39°34' E 002°38'0 0.0
2017-Oct-09 15:30N 39°34' E 002°38'0 0.0
2017-Oct-09 15:00N 39°34' E 002°38'4 8.0
2017-Oct-09 14:30N 39°30' E 002°38'510.7
2017-Oct-09 14:00N 39°25' E 002°36'  

Dump ship's entire track history